Time;durP1;ratioP1;P1;durP2;ratioP2;P2;SDS_P1;SDS_P2;PMS_P1;PMS_P2;Temp;Humidity;BMP_temperature;BMP_pressure;BME280_temperature;BME280_humidity;BME280_pressure;Samples;Min_cycle;Max_cycle;Signal;HPM_P1;HPM_P2
2023/07/30 00:01:03;;;;;;;3.00;2.70;;;25.50;70.90;;;;;;4970473;28;20476;-86
2023/07/30 00:03:31;;;;;;;4.77;3.33;;;25.50;70.90;;;;;;4971468;28;20481;-85
2023/07/30 00:05:59;;;;;;;3.23;2.93;;;25.60;70.90;;;;;;4987571;28;20449;-86
2023/07/30 00:08:28;;;;;;;4.73;3.10;;;25.50;70.90;;;;;;4960783;28;20457;-85
2023/07/30 00:10:58;;;;;;;3.10;2.80;;;25.50;70.90;;;;;;4973648;28;20516;-86
2023/07/30 00:13:26;;;;;;;3.57;3.27;;;25.50;70.80;;;;;;4971142;28;20988;-86
2023/07/30 00:15:56;;;;;;;6.00;2.90;;;25.50;70.90;;;;;;4958341;28;20465;-85
2023/07/30 00:18:25;;;;;;;3.30;2.60;;;25.50;70.90;;;;;;4978098;28;20499;-85
2023/07/30 00:20:53;;;;;;;2.20;2.10;;;25.60;70.90;;;;;;4979821;28;20481;-86
2023/07/30 00:23:21;;;;;;;2.97;2.53;;;25.60;70.90;;;;;;4971761;28;20477;-85
2023/07/30 00:25:50;;;;;;;3.67;2.90;;;25.60;70.80;;;;;;4976566;28;20519;-85
2023/07/30 00:28:18;;;;;;;3.50;3.20;;;25.50;70.70;;;;;;4981472;28;20529;-85
2023/07/30 00:30:47;;;;;;;3.03;2.73;;;25.60;70.70;;;;;;4980754;28;20461;-85
2023/07/30 00:33:16;;;;;;;2.27;2.17;;;25.50;70.80;;;;;;4971135;28;20528;-85
2023/07/30 00:35:45;;;;;;;4.07;2.97;;;25.50;70.80;;;;;;4972211;28;20827;-86
2023/07/30 00:38:14;;;;;;;5.37;3.00;;;25.50;70.70;;;;;;4956242;28;20457;-86
2023/07/30 00:40:42;;;;;;;2.63;2.43;;;25.50;70.70;;;;;;4973186;28;20459;-85
2023/07/30 00:43:10;;;;;;;2.20;1.93;;;25.50;70.70;;;;;;4960671;28;20474;-85
2023/07/30 00:45:42;;;;;;;3.20;2.80;;;25.60;70.70;;;;;;4958465;28;20496;-84
2023/07/30 00:48:11;;;;;;;2.53;2.33;;;25.50;70.70;;;;;;4971830;28;20960;-85
2023/07/30 00:50:42;;;;;;;2.63;2.30;;;25.60;70.60;;;;;;4973156;28;20435;-85
2023/07/30 00:53:12;;;;;;;2.60;2.33;;;25.50;70.60;;;;;;4972355;28;20464;-85
2023/07/30 00:55:40;;;;;;;2.40;2.20;;;25.60;70.80;;;;;;4973394;28;20457;-85
2023/07/30 00:58:10;;;;;;;2.40;2.30;;;25.50;70.60;;;;;;4956134;28;20452;-86
2023/07/30 01:00:40;;;;;;;2.87;2.67;;;25.50;70.60;;;;;;4956216;28;20512;-85
2023/07/30 01:03:09;;;;;;;2.63;2.43;;;25.50;70.60;;;;;;4972067;28;20461;-85
2023/07/30 01:05:38;;;;;;;2.47;2.23;;;25.50;70.60;;;;;;4955510;28;20442;-86
2023/07/30 01:08:08;;;;;;;2.63;2.50;;;25.50;70.50;;;;;;4971293;28;20468;-85
2023/07/30 01:10:38;;;;;;;2.90;2.70;;;25.50;70.50;;;;;;4973229;28;20495;-86
2023/07/30 01:13:08;;;;;;;2.20;2.00;;;25.50;70.50;;;;;;4972602;28;20437;-85
2023/07/30 01:15:38;;;;;;;2.57;2.37;;;25.50;70.50;;;;;;4960100;28;20525;-87
2023/07/30 01:18:07;;;;;;;2.67;2.40;;;25.50;70.50;;;;;;4955011;28;20503;-85
2023/07/30 01:20:36;;;;;;;3.00;2.80;;;25.50;70.50;;;;;;4955519;28;20522;-85
2023/07/30 01:23:05;;;;;;;3.33;2.80;;;25.50;70.40;;;;;;4969882;28;20457;-86
2023/07/30 01:25:37;;;;;;;2.57;2.37;;;25.50;70.40;;;;;;4950048;28;20957;-86
2023/07/30 01:28:09;;;;;;;3.40;2.40;;;25.50;70.40;;;;;;4972672;28;20489;-85
2023/07/30 01:30:41;;;;;;;2.57;2.37;;;25.50;70.40;;;;;;4972552;28;20468;-85
2023/07/30 01:33:12;;;;;;;2.60;2.40;;;25.50;70.40;;;;;;4964570;28;20866;-85
2023/07/30 01:35:42;;;;;;;2.30;2.10;;;25.50;70.40;;;;;;4971173;28;20468;-86
2023/07/30 01:38:13;;;;;;;3.53;2.50;;;25.50;70.40;;;;;;4963706;28;20845;-86
2023/07/30 01:40:42;;;;;;;2.50;2.10;;;25.50;70.40;;;;;;4973681;28;20487;-85
2023/07/30 01:43:11;;;;;;;2.40;2.07;;;25.50;70.40;;;;;;4955644;28;20557;-85
2023/07/30 01:45:40;;;;;;;2.43;2.23;;;25.50;70.40;;;;;;4969551;28;20480;-85
2023/07/30 01:48:09;;;;;;;2.00;1.90;;;25.50;70.30;;;;;;4972385;28;20489;-85
2023/07/30 01:50:37;;;;;;;2.30;2.10;;;25.50;70.40;;;;;;4972246;28;20918;-85
2023/07/30 01:53:06;;;;;;;2.53;2.40;;;25.50;70.40;;;;;;4949594;28;20983;-85
2023/07/30 01:55:36;;;;;;;3.57;2.03;;;25.50;70.40;;;;;;4961682;28;20458;-86
2023/07/30 01:58:04;;;;;;;2.20;2.00;;;25.50;70.30;;;;;;4954841;28;20456;-85
2023/07/30 02:00:32;;;;;;;2.27;2.07;;;25.50;70.30;;;;;;4964949;28;20479;-86
2023/07/30 02:03:07;;;;;;;2.10;1.93;;;25.50;70.30;;;;;;4972248;28;20451;-85
2023/07/30 02:05:35;;;;;;;2.20;2.00;;;25.50;70.30;;;;;;4954754;28;20869;-86
2023/07/30 02:08:04;;;;;;;2.57;2.37;;;25.50;70.30;;;;;;4971705;28;20460;-85
2023/07/30 02:10:33;;;;;;;2.40;2.13;;;25.50;70.40;;;;;;4938465;28;20461;-85
2023/07/30 02:13:03;;;;;;;2.33;2.00;;;25.50;70.30;;;;;;4967344;28;20964;-85
2023/07/30 02:15:31;;;;;;;1.80;1.70;;;25.50;70.30;;;;;;4953207;28;20464;-86
2023/07/30 02:18:00;;;;;;;2.30;2.20;;;25.50;70.30;;;;;;4945894;28;20501;-85
2023/07/30 02:20:28;;;;;;;2.70;2.50;;;25.50;70.20;;;;;;4971230;28;20933;-85
2023/07/30 02:22:56;;;;;;;2.53;2.33;;;25.50;70.20;;;;;;4953179;28;20460;-85
2023/07/30 02:25:25;;;;;;;2.20;2.10;;;25.50;70.30;;;;;;4958214;28;20469;-85
2023/07/30 02:27:53;;;;;;;2.57;2.37;;;25.50;70.20;;;;;;4971417;28;20528;-86
2023/07/30 02:30:23;;;;;;;2.50;2.30;;;25.50;70.30;;;;;;4971672;28;20980;-85
2023/07/30 02:32:51;;;;;;;2.17;1.97;;;25.50;70.40;;;;;;4970685;28;20470;-85
2023/07/30 02:35:20;;;;;;;3.07;2.30;;;25.50;70.30;;;;;;4962318;28;20490;-85
2023/07/30 02:37:49;;;;;;;2.30;2.20;;;25.50;70.40;;;;;;4971360;28;20445;-85
2023/07/30 02:40:18;;;;;;;2.03;1.93;;;25.50;70.30;;;;;;4971912;28;20467;-86
2023/07/30 02:42:46;;;;;;;2.33;2.13;;;25.50;70.30;;;;;;4966451;28;20952;-85
2023/07/30 02:45:14;;;;;;;2.17;1.97;;;25.50;70.30;;;;;;4972281;28;20469;-86
2023/07/30 02:47:44;;;;;;;1.73;1.63;;;25.50;70.30;;;;;;4971534;28;20957;-86
2023/07/30 02:50:12;;;;;;;1.80;1.70;;;25.50;70.20;;;;;;4972346;28;20503;-85
2023/07/30 02:52:40;;;;;;;1.90;1.80;;;25.50;70.30;;;;;;4970822;28;20457;-85
2023/07/30 02:55:09;;;;;;;1.77;1.67;;;25.50;70.40;;;;;;4956305;28;20793;-85
2023/07/30 02:57:37;;;;;;;2.80;2.07;;;25.50;70.30;;;;;;4974849;28;20524;-85
2023/07/30 03:00:08;;;;;;;2.00;1.90;;;25.50;70.30;;;;;;4957429;28;20472;-85
2023/07/30 03:02:37;;;;;;;1.83;1.73;;;25.50;70.30;;;;;;4972906;28;20848;-85
2023/07/30 03:05:07;;;;;;;2.30;2.20;;;25.50;70.20;;;;;;4974243;28;20476;-86
2023/07/30 03:07:36;;;;;;;2.27;2.07;;;25.50;70.20;;;;;;4969395;28;20465;-86
2023/07/30 03:10:04;;;;;;;2.63;2.33;;;25.50;70.20;;;;;;4975597;28;20460;-87
2023/07/30 03:12:33;;;;;;;2.30;2.10;;;25.50;70.20;;;;;;4957771;28;20464;-86
2023/07/30 03:15:01;;;;;;;2.03;1.63;;;25.50;70.10;;;;;;4978561;28;20459;-85
2023/07/30 03:17:29;;;;;;;2.17;2.00;;;25.50;70.20;;;;;;4953257;28;20496;-87
2023/07/30 03:19:58;;;;;;;2.50;2.30;;;25.50;70.20;;;;;;4954522;29;20473;-85
2023/07/30 03:22:28;;;;;;;2.27;2.07;;;25.50;70.10;;;;;;4954019;29;20494;-85
2023/07/30 03:24:56;;;;;;;2.10;1.90;;;25.50;70.20;;;;;;4944516;29;20482;-86
2023/07/30 03:27:24;;;;;;;2.03;1.93;;;25.50;70.30;;;;;;4947445;29;20482;-86
2023/07/30 03:29:53;;;;;;;2.00;1.90;;;25.50;70.30;;;;;;4955057;29;20468;-86
2023/07/30 03:32:21;;;;;;;2.30;2.20;;;25.40;70.30;;;;;;4969012;28;20462;-85
2023/07/30 03:34:50;;;;;;;2.50;2.30;;;25.40;70.30;;;;;;4941195;29;20556;-85
2023/07/30 03:37:20;;;;;;;2.33;2.13;;;25.40;70.30;;;;;;4943632;29;20497;-85
2023/07/30 03:39:51;;;;;;;2.27;2.10;;;25.40;70.30;;;;;;4946210;29;21161;-85
2023/07/30 03:42:19;;;;;;;1.97;1.87;;;25.40;70.20;;;;;;4954765;29;21021;-85
2023/07/30 03:44:48;;;;;;;2.13;1.93;;;25.40;70.10;;;;;;4951221;29;20479;-85
2023/07/30 03:47:16;;;;;;;2.20;1.80;;;25.40;70.10;;;;;;4954785;29;20933;-85
2023/07/30 03:49:45;;;;;;;2.40;2.20;;;25.40;70.10;;;;;;4954476;29;20462;-86
2023/07/30 03:52:13;;;;;;;2.17;2.00;;;25.40;70.10;;;;;;4949500;29;20454;-85
2023/07/30 03:54:42;;;;;;;2.43;2.03;;;25.40;70.10;;;;;;4952834;29;20461;-85
2023/07/30 03:57:12;;;;;;;2.20;2.00;;;25.40;70.10;;;;;;4954953;29;20973;-85
2023/07/30 03:59:40;;;;;;;1.90;1.80;;;25.40;70.10;;;;;;4954653;29;20462;-86
2023/07/30 04:02:08;;;;;;;1.87;1.77;;;25.40;70.10;;;;;;4953030;29;20442;-85
2023/07/30 04:04:36;;;;;;;1.90;1.77;;;25.40;70.20;;;;;;4954347;28;20469;-85
2023/07/30 04:07:05;;;;;;;1.70;1.60;;;25.40;70.20;;;;;;4951641;28;20871;-86
2023/07/30 04:09:33;;;;;;;1.87;1.77;;;25.40;70.10;;;;;;4952596;29;20467;-85
2023/07/30 04:12:02;;;;;;;1.70;1.60;;;25.40;70.10;;;;;;4953978;29;20528;-85
2023/07/30 04:14:31;;;;;;;1.83;1.73;;;25.40;70.10;;;;;;4952629;28;20481;-85
2023/07/30 04:17:00;;;;;;;2.40;2.20;;;25.40;70.10;;;;;;4952651;28;20900;-85
2023/07/30 04:19:28;;;;;;;1.87;1.77;;;25.40;70.10;;;;;;4954065;29;20461;-86
2023/07/30 04:21:57;;;;;;;1.53;1.43;;;25.40;70.10;;;;;;4952351;29;20458;-85
2023/07/30 04:24:26;;;;;;;2.00;1.90;;;25.40;70.10;;;;;;4954912;29;20517;-86
2023/07/30 04:26:54;;;;;;;1.97;1.80;;;25.40;70.00;;;;;;4952629;29;20564;-86
2023/07/30 04:29:23;;;;;;;1.90;1.80;;;25.40;70.10;;;;;;4964585;28;20466;-85
2023/07/30 04:31:53;;;;;;;1.57;1.47;;;25.40;70.00;;;;;;4952458;28;20470;-85
2023/07/30 04:34:21;;;;;;;1.93;1.83;;;25.40;70.00;;;;;;4955206;28;20513;-86
2023/07/30 04:36:49;;;;;;;1.80;1.70;;;25.40;70.00;;;;;;4967053;28;20472;-85
2023/07/30 04:39:18;;;;;;;1.80;1.70;;;25.40;70.00;;;;;;4969257;28;20544;-85
2023/07/30 04:41:47;;;;;;;1.97;1.87;;;25.40;69.90;;;;;;4968813;28;20458;-85
2023/07/30 04:44:16;;;;;;;1.70;1.60;;;25.40;69.90;;;;;;4958284;28;20474;-85
2023/07/30 04:46:44;;;;;;;2.60;2.37;;;25.40;69.90;;;;;;4936712;29;20490;-86
2023/07/30 04:49:14;;;;;;;1.43;1.33;;;25.40;69.90;;;;;;4968273;28;20462;-86
2023/07/30 04:51:43;;;;;;;1.60;1.50;;;25.40;69.90;;;;;;4966084;28;20474;-85
2023/07/30 04:54:12;;;;;;;1.93;1.83;;;25.40;69.80;;;;;;4965242;28;20483;-85
2023/07/30 04:56:41;;;;;;;1.80;1.70;;;25.40;69.80;;;;;;4951780;29;20506;-85
2023/07/30 04:59:09;;;;;;;2.10;1.80;;;25.50;69.80;;;;;;4967874;28;21022;-86
2023/07/30 05:01:37;;;;;;;1.97;1.87;;;25.50;69.80;;;;;;4949086;28;20470;-85
2023/07/30 05:04:06;;;;;;;2.00;1.90;;;25.50;69.70;;;;;;4938068;29;20459;-86
2023/07/30 05:06:36;;;;;;;2.37;2.17;;;25.50;69.70;;;;;;4936195;28;20889;-86
2023/07/30 05:09:05;;;;;;;2.27;2.10;;;25.50;69.70;;;;;;4951739;29;20970;-86
2023/07/30 05:11:33;;;;;;;2.30;1.87;;;25.50;69.80;;;;;;4951090;29;20450;-86
2023/07/30 05:14:01;;;;;;;2.20;1.80;;;25.50;69.70;;;;;;4954200;28;20961;-85
2023/07/30 05:16:30;;;;;;;2.00;1.80;;;25.50;69.60;;;;;;4951818;28;20555;-86
2023/07/30 05:18:58;;;;;;;1.83;1.73;;;25.50;69.80;;;;;;4974413;28;20489;-86
2023/07/30 05:21:27;;;;;;;1.50;1.40;;;25.50;69.70;;;;;;4970740;28;20559;-85
2023/07/30 05:23:57;;;;;;;2.00;1.80;;;25.50;69.60;;;;;;4972270;28;20469;-86
2023/07/30 05:26:25;;;;;;;4.10;2.10;;;25.50;69.60;;;;;;4972690;28;20480;-86
2023/07/30 05:28:54;;;;;;;1.60;1.50;;;25.50;69.60;;;;;;4952181;28;20480;-85
2023/07/30 05:31:22;;;;;;;1.63;1.53;;;25.50;69.60;;;;;;4971707;28;20532;-86
2023/07/30 05:33:51;;;;;;;2.10;2.00;;;25.50;69.50;;;;;;4954470;28;20496;-85
2023/07/30 05:36:20;;;;;;;2.03;1.90;;;25.50;69.50;;;;;;4971527;28;20524;-85
2023/07/30 05:38:48;;;;;;;1.60;1.50;;;25.50;69.50;;;;;;4954991;28;20460;-85
2023/07/30 05:41:18;;;;;;;1.70;1.60;;;25.50;69.50;;;;;;4978711;28;20516;-86
2023/07/30 05:43:47;;;;;;;2.30;2.10;;;25.50;69.40;;;;;;4978980;28;20964;-85
2023/07/30 05:46:15;;;;;;;1.80;1.70;;;25.50;69.40;;;;;;4972020;28;20545;-86
2023/07/30 05:48:44;;;;;;;1.90;1.80;;;25.50;69.50;;;;;;4972383;28;20840;-85
2023/07/30 05:51:12;;;;;;;1.67;1.57;;;25.50;69.50;;;;;;4970736;28;20468;-84
2023/07/30 05:53:41;;;;;;;2.13;2.00;;;25.50;69.70;;;;;;4951455;28;20828;-85
2023/07/30 05:56:10;;;;;;;1.70;1.60;;;25.50;69.60;;;;;;4969270;28;20468;-85
2023/07/30 05:58:40;;;;;;;2.10;1.90;;;25.50;69.60;;;;;;4975117;28;20471;-87
2023/07/30 06:01:08;;;;;;;2.20;2.00;;;25.50;69.40;;;;;;4974236;28;20891;-86
2023/07/30 06:03:37;;;;;;;2.20;2.10;;;25.50;69.40;;;;;;4972536;28;20453;-86
2023/07/30 06:06:05;;;;;;;1.87;1.77;;;25.50;69.40;;;;;;4973476;28;20526;-86
2023/07/30 06:08:34;;;;;;;1.87;1.70;;;25.50;69.40;;;;;;4975224;28;20538;-86
2023/07/30 06:11:03;;;;;;;1.90;1.70;;;25.50;69.40;;;;;;4969841;28;20503;-85
2023/07/30 06:13:31;;;;;;;1.60;1.50;;;25.50;69.40;;;;;;4969120;28;22279;-86
2023/07/30 06:16:01;;;;;;;2.00;1.67;;;25.50;69.30;;;;;;4958103;28;20456;-85
2023/07/30 06:18:30;;;;;;;1.73;1.63;;;25.50;69.30;;;;;;4972597;28;21147;-85
2023/07/30 06:20:58;;;;;;;1.97;1.87;;;25.50;69.40;;;;;;4971990;28;20556;-86
2023/07/30 06:23:27;;;;;;;1.90;1.80;;;25.50;69.50;;;;;;4974823;28;20519;-86
2023/07/30 06:25:55;;;;;;;1.83;1.50;;;25.60;69.50;;;;;;4970697;28;20816;-85
2023/07/30 06:28:24;;;;;;;1.70;1.60;;;25.60;69.60;;;;;;4972138;28;20470;-86
2023/07/30 06:30:52;;;;;;;3.10;2.10;;;25.60;69.50;;;;;;4958532;28;20837;-86
2023/07/30 06:33:22;;;;;;;1.33;1.27;;;25.60;69.40;;;;;;4977559;28;20477;-86
2023/07/30 06:35:54;;;;;;;1.60;1.50;;;25.60;69.40;;;;;;4978138;28;20468;-85
2023/07/30 06:38:23;;;;;;;2.03;1.77;;;25.60;69.40;;;;;;4957344;28;20874;-86
2023/07/30 06:40:51;;;;;;;1.70;1.60;;;25.60;69.30;;;;;;4975337;28;21137;-86
2023/07/30 06:43:20;;;;;;;1.50;1.40;;;25.60;69.40;;;;;;4975754;28;20474;-89
2023/07/30 06:45:49;;;;;;;1.80;1.70;;;25.60;69.30;;;;;;4952298;28;20452;-86
2023/07/30 06:48:17;;;;;;;1.73;1.63;;;25.60;69.20;;;;;;4976313;28;20486;-86
2023/07/30 06:50:47;;;;;;;1.77;1.67;;;25.60;69.10;;;;;;4977752;28;20462;-86
2023/07/30 06:53:15;;;;;;;1.90;1.80;;;25.60;69.20;;;;;;4976869;28;20469;-86
2023/07/30 06:55:43;;;;;;;1.53;1.43;;;25.70;69.30;;;;;;4971791;28;20504;-86
2023/07/30 06:58:12;;;;;;;1.63;1.53;;;25.70;69.10;;;;;;4981442;28;20512;-85
2023/07/30 07:00:41;;;;;;;2.60;2.10;;;25.70;69.00;;;;;;4971171;28;20495;-85
2023/07/30 07:03:09;;;;;;;1.90;1.80;;;25.70;69.10;;;;;;4980826;28;20469;-86
2023/07/30 07:05:41;;;;;;;1.63;1.53;;;25.70;69.10;;;;;;4980273;28;20986;-86
2023/07/30 07:08:13;;;;;;;1.50;1.33;;;25.70;69.10;;;;;;4959051;28;20566;-85
2023/07/30 07:10:44;;;;;;;1.80;1.70;;;25.70;69.00;;;;;;4979866;28;20462;-85
2023/07/30 07:13:15;;;;;;;1.80;1.70;;;25.70;68.90;;;;;;4969434;28;20959;-86
2023/07/30 07:15:43;;;;;;;1.97;1.87;;;25.70;69.00;;;;;;4975437;28;20496;-85
2023/07/30 07:18:11;;;;;;;3.27;1.83;;;25.70;69.00;;;;;;4973511;28;20498;-85
2023/07/30 07:24:41;;;;;;;3.73;1.80;;;25.80;69.10;;;;;;4968366;28;20563;-86
2023/07/30 07:27:09;;;;;;;1.63;1.53;;;25.70;68.90;;;;;;4972936;28;20481;-86
2023/07/30 07:29:37;;;;;;;1.70;1.60;;;25.70;68.90;;;;;;4971317;28;20473;-86
2023/07/30 07:32:07;;;;;;;1.63;1.53;;;25.70;68.90;;;;;;4953757;28;20473;-86
2023/07/30 07:34:35;;;;;;;2.20;1.43;;;25.70;68.90;;;;;;4972807;28;20477;-86
2023/07/30 07:37:03;;;;;;;2.37;1.60;;;25.70;68.90;;;;;;4957255;28;20487;-86
2023/07/30 07:39:33;;;;;;;1.93;1.83;;;25.70;68.90;;;;;;4956099;28;20464;-86
2023/07/30 07:42:03;;;;;;;1.60;1.47;;;25.70;68.70;;;;;;4970723;28;20466;-86
2023/07/30 07:44:31;;;;;;;2.07;1.57;;;25.70;69.00;;;;;;4969054;28;20472;-86
2023/07/30 07:46:59;;;;;;;1.97;1.80;;;25.80;68.90;;;;;;4968974;28;20590;-87
2023/07/30 07:49:28;;;;;;;4.03;1.90;;;25.80;68.80;;;;;;4975941;28;21060;-85
2023/07/30 07:51:56;;;;;;;2.10;1.90;;;25.80;68.80;;;;;;4972163;28;20563;-86
2023/07/30 07:54:25;;;;;;;1.80;1.70;;;25.80;68.60;;;;;;4955490;28;20981;-87
2023/07/30 07:56:54;;;;;;;1.83;1.73;;;25.80;68.80;;;;;;4972538;28;20462;-86
2023/07/30 07:59:24;;;;;;;2.10;1.47;;;25.80;68.80;;;;;;4967396;28;20813;-86
2023/07/30 08:01:52;;;;;;;1.90;1.80;;;25.80;68.80;;;;;;4965490;28;20690;-86
2023/07/30 08:04:22;;;;;;;2.10;2.00;;;25.80;68.70;;;;;;4971326;28;20486;-87
2023/07/30 08:06:51;;;;;;;1.30;1.20;;;25.90;68.70;;;;;;4970880;28;20474;-86
2023/07/30 08:09:19;;;;;;;1.50;1.40;;;25.80;68.70;;;;;;4939226;28;20467;-87
2023/07/30 08:11:47;;;;;;;1.57;1.47;;;25.80;68.60;;;;;;4971260;28;20509;-87
2023/07/30 08:14:15;;;;;;;2.73;1.77;;;25.80;68.60;;;;;;4956415;28;21023;-89
2023/07/30 08:16:48;;;;;;;1.73;1.63;;;25.90;68.60;;;;;;4969286;28;20981;-87
2023/07/30 08:19:17;;;;;;;2.20;1.53;;;25.90;68.50;;;;;;4970880;28;20457;-87
2023/07/30 08:21:45;;;;;;;1.93;1.67;;;25.90;68.70;;;;;;4969124;28;20961;-88
2023/07/30 08:24:14;;;;;;;1.60;1.50;;;25.90;68.50;;;;;;4973399;28;20456;-85
2023/07/30 08:26:42;;;;;;;1.50;1.40;;;25.90;68.30;;;;;;4953240;28;20629;-86
2023/07/30 08:29:13;;;;;;;1.50;1.40;;;25.90;68.40;;;;;;4973627;28;20475;-86
2023/07/30 08:31:42;;;;;;;1.80;1.70;;;25.90;68.70;;;;;;4967931;28;20458;-86
2023/07/30 08:34:12;;;;;;;3.07;1.37;;;25.90;68.40;;;;;;4974535;28;20967;-86
2023/07/30 08:36:41;;;;;;;1.70;1.60;;;25.90;68.30;;;;;;4953341;28;20524;-87
2023/07/30 08:39:09;;;;;;;1.60;1.47;;;26.00;68.30;;;;;;4966593;28;20462;-88
2023/07/30 08:41:38;;;;;;;1.90;1.67;;;26.00;68.40;;;;;;4956571;28;20457;-88
2023/07/30 08:44:06;;;;;;;9.30;2.00;;;26.00;68.00;;;;;;4980302;28;20460;-88
2023/07/30 08:46:36;;;;;;;3.30;1.70;;;26.00;68.00;;;;;;4957541;28;20457;-88
2023/07/30 08:49:04;;;;;;;1.63;1.53;;;26.00;67.90;;;;;;4959296;28;20516;-88
2023/07/30 08:51:37;;;;;;;1.20;1.20;;;26.00;67.90;;;;;;4979440;28;20472;-89
2023/07/30 08:54:06;;;;;;;1.77;1.63;;;26.00;67.90;;;;;;4971604;28;20540;-89
2023/07/30 08:56:34;;;;;;;1.20;1.10;;;26.00;67.80;;;;;;4959336;28;20464;-88
2023/07/30 08:59:04;;;;;;;2.00;1.90;;;26.00;68.10;;;;;;4972954;28;20466;-89
2023/07/30 09:01:39;;;;;;;1.67;1.57;;;26.00;68.10;;;;;;4967445;28;20882;-89
2023/07/30 09:04:09;;;;;;;1.97;1.77;;;25.90;67.90;;;;;;4951012;28;20596;-88
2023/07/30 09:06:41;;;;;;;1.93;1.70;;;25.90;67.90;;;;;;4967976;28;20976;-90
2023/07/30 09:09:12;;;;;;;1.93;1.73;;;25.90;68.10;;;;;;4963025;28;20569;-88
2023/07/30 09:11:40;;;;;;;1.17;1.10;;;25.90;67.90;;;;;;4956466;28;20519;-87
2023/07/30 09:14:10;;;;;;;1.53;1.43;;;25.90;67.80;;;;;;4955822;28;20557;-88
2023/07/30 09:16:38;;;;;;;1.60;1.50;;;25.90;67.90;;;;;;4955026;28;20474;-87
2023/07/30 09:19:08;;;;;;;2.53;1.40;;;25.90;67.80;;;;;;4955400;28;20467;-88
2023/07/30 09:21:37;;;;;;;1.70;1.60;;;25.90;67.80;;;;;;4962131;28;20450;-89
2023/07/30 09:24:07;;;;;;;1.40;1.30;;;26.00;67.80;;;;;;4972184;28;20458;-87
2023/07/30 09:26:44;;;;;;;2.10;1.53;;;26.00;67.80;;;;;;4974472;28;20801;-87
2023/07/30 09:29:13;;;;;;;1.40;1.30;;;26.00;67.70;;;;;;4971201;28;20489;-87
2023/07/30 09:31:54;;;;;;;2.60;1.60;;;26.00;67.80;;;;;;4975025;28;20448;-87
2023/07/30 09:34:23;;;;;;;1.70;1.60;;;26.00;67.70;;;;;;4973358;28;20902;-88
2023/07/30 09:36:53;;;;;;;1.70;1.60;;;26.00;67.70;;;;;;4974137;28;20461;-87
2023/07/30 09:39:24;;;;;;;2.27;1.83;;;26.00;67.70;;;;;;4958911;28;20457;-87
2023/07/30 09:41:53;;;;;;;1.80;1.53;;;26.00;67.80;;;;;;4971565;28;20821;-86
2023/07/30 09:44:22;;;;;;;1.70;1.50;;;26.00;67.70;;;;;;4969950;28;20454;-88
2023/07/30 09:46:51;;;;;;;1.63;1.53;;;26.00;67.60;;;;;;4972755;28;20466;-88
2023/07/30 09:49:20;;;;;;;1.43;1.33;;;26.10;67.60;;;;;;4938833;28;20513;-89
2023/07/30 09:51:52;;;;;;;1.77;1.53;;;26.10;67.60;;;;;;4970700;28;20466;-87
2023/07/30 09:54:22;;;;;;;1.50;1.40;;;26.10;67.60;;;;;;4971641;28;20474;-87
2023/07/30 09:56:50;;;;;;;3.40;1.47;;;26.10;67.50;;;;;;4969559;28;20872;-89
2023/07/30 09:59:19;;;;;;;2.13;1.60;;;26.10;67.60;;;;;;4971037;28;20481;-88
2023/07/30 10:01:49;;;;;;;1.73;1.40;;;26.10;67.50;;;;;;4970209;28;20451;-86
2023/07/30 10:04:21;;;;;;;1.53;1.43;;;26.20;67.40;;;;;;4975126;28;20451;-86
2023/07/30 10:06:55;;;;;;;1.40;1.30;;;26.20;67.30;;;;;;4972731;28;20450;-86
2023/07/30 10:09:31;;;;;;;1.63;1.53;;;26.20;67.30;;;;;;4975407;28;21046;-87
2023/07/30 10:12:01;;;;;;;1.23;1.10;;;26.20;67.30;;;;;;4968291;28;20898;-87
2023/07/30 10:14:31;;;;;;;1.60;1.50;;;26.20;67.30;;;;;;4967168;28;20461;-87
2023/07/30 10:17:01;;;;;;;1.60;1.40;;;26.20;67.50;;;;;;4947645;28;20591;-88
2023/07/30 10:19:31;;;;;;;1.70;1.60;;;26.20;67.40;;;;;;4953527;28;21179;-88
2023/07/30 10:22:21;;;;;;;1.53;1.43;;;26.20;67.30;;;;;;4955295;28;20466;-89
2023/07/30 10:24:59;;;;;;;1.40;1.30;;;26.20;67.20;;;;;;4966102;28;20538;-87
2023/07/30 10:27:37;;;;;;;2.53;1.93;;;26.20;67.20;;;;;;4969415;28;20464;-87
2023/07/30 10:30:13;;;;;;;1.57;1.47;;;26.20;67.10;;;;;;4970549;28;20474;-88
2023/07/30 10:32:42;;;;;;;2.30;1.47;;;26.20;67.10;;;;;;4970578;28;20474;-88
2023/07/30 10:35:41;;;;;;;2.80;1.30;;;26.30;67.20;;;;;;4969788;28;20579;-87
2023/07/30 10:38:20;;;;;;;1.73;1.63;;;26.30;67.10;;;;;;4972845;28;20451;-87
2023/07/30 10:41:04;;;;;;;1.50;1.40;;;26.30;67.10;;;;;;4972351;28;20470;-87
2023/07/30 10:43:36;;;;;;;1.80;1.70;;;26.30;67.10;;;;;;4964866;28;20471;-90
2023/07/30 10:46:05;;;;;;;1.40;1.30;;;26.30;67.10;;;;;;4967229;28;20484;-89
2023/07/30 10:48:37;;;;;;;2.00;1.67;;;26.30;67.10;;;;;;4968680;28;20523;-90
2023/07/30 10:51:07;;;;;;;1.53;1.43;;;26.30;67.10;;;;;;4970013;28;20513;-87
2023/07/30 10:53:36;;;;;;;1.70;1.27;;;26.20;67.30;;;;;;4952434;28;20541;-86
2023/07/30 10:56:07;;;;;;;1.53;1.43;;;26.20;67.20;;;;;;4957843;28;20537;-87
2023/07/30 10:58:37;;;;;;;1.40;1.37;;;26.20;67.40;;;;;;4970074;28;20481;-87
2023/07/30 11:01:07;;;;;;;1.60;1.50;;;26.20;67.30;;;;;;4934302;28;20471;-88
2023/07/30 11:03:37;;;;;;;1.17;1.07;;;26.20;67.40;;;;;;4968153;28;20498;-90
2023/07/30 11:06:07;;;;;;;1.30;1.20;;;26.30;67.30;;;;;;4965708;28;20467;-90
2023/07/30 11:08:37;;;;;;;2.10;1.73;;;26.30;67.40;;;;;;4961743;28;20561;-88
2023/07/30 11:11:09;;;;;;;4.30;1.77;;;26.30;67.40;;;;;;4949699;28;20462;-88
2023/07/30 11:13:38;;;;;;;1.80;1.70;;;26.30;67.80;;;;;;4967288;28;20459;-83
2023/07/30 11:16:07;;;;;;;2.43;1.50;;;26.30;67.80;;;;;;4965602;28;20568;-86
2023/07/30 11:18:36;;;;;;;5.37;2.20;;;26.30;68.20;;;;;;4971137;28;20980;-84
2023/07/30 11:21:06;;;;;;;1.97;1.83;;;26.30;68.30;;;;;;4967114;28;20468;-84
2023/07/30 11:23:35;;;;;;;1.57;1.47;;;26.30;68.20;;;;;;4970038;28;20479;-83
2023/07/30 11:26:05;;;;;;;1.87;1.77;;;26.40;67.90;;;;;;4969857;28;20566;-83
2023/07/30 11:28:35;;;;;;;2.57;2.10;;;26.40;67.80;;;;;;4973216;28;20455;-83
2023/07/30 11:31:15;;;;;;;1.50;1.40;;;26.30;67.70;;;;;;4975100;28;20463;-83
2023/07/30 11:33:51;;;;;;;3.20;2.00;;;26.30;67.70;;;;;;4968853;28;20465;-84
2023/07/30 11:36:22;;;;;;;4.57;1.60;;;26.30;67.60;;;;;;4967858;28;20496;-84
2023/07/30 11:38:52;;;;;;;1.50;1.40;;;26.30;67.70;;;;;;4966030;28;20718;-83
2023/07/30 11:41:23;;;;;;;1.93;1.63;;;26.20;67.70;;;;;;4970724;28;20471;-82
2023/07/30 11:43:52;;;;;;;1.63;1.53;;;26.20;67.60;;;;;;4972692;28;20792;-85
2023/07/30 11:46:22;;;;;;;1.57;1.20;;;26.30;67.60;;;;;;4967336;28;20459;-82
2023/07/30 11:48:52;;;;;;;2.20;2.00;;;26.30;67.50;;;;;;4970226;28;20510;-84
2023/07/30 11:51:22;;;;;;;1.63;1.53;;;26.30;67.40;;;;;;4973516;28;20944;-82
2023/07/30 11:53:52;;;;;;;1.83;1.73;;;26.40;67.30;;;;;;4974666;28;20812;-83
2023/07/30 11:56:24;;;;;;;1.60;1.50;;;26.40;67.10;;;;;;4970803;28;20453;-83
2023/07/30 11:58:56;;;;;;;1.60;1.50;;;26.40;67.00;;;;;;4979258;28;20496;-83
2023/07/30 12:01:26;;;;;;;2.13;1.93;;;26.40;67.00;;;;;;4972787;28;20465;-84
2023/07/30 12:03:58;;;;;;;2.53;1.63;;;26.40;67.00;;;;;;4954047;28;20475;-85
2023/07/30 12:06:39;;;;;;;1.30;1.20;;;26.40;67.00;;;;;;4971522;28;20997;-85
2023/07/30 12:09:12;;;;;;;1.90;1.47;;;26.40;67.00;;;;;;4971070;28;20495;-83
2023/07/30 12:11:48;;;;;;;1.70;1.60;;;26.40;67.00;;;;;;4970246;28;20714;-84
2023/07/30 12:14:18;;;;;;;2.43;1.53;;;26.50;67.00;;;;;;4970821;28;20448;-82
2023/07/30 12:16:46;;;;;;;1.70;1.60;;;26.50;66.80;;;;;;4971085;28;20492;-83
2023/07/30 12:19:15;;;;;;;1.40;1.30;;;26.60;66.80;;;;;;4971463;28;20446;-84
2023/07/30 12:21:43;;;;;;;1.60;1.30;;;26.60;66.40;;;;;;4971702;28;20450;-83
2023/07/30 12:24:11;;;;;;;1.43;1.30;;;26.70;66.40;;;;;;4974139;28;20450;-83
2023/07/30 12:26:40;;;;;;;1.77;1.30;;;26.70;66.30;;;;;;4973716;28;20438;-83
2023/07/30 12:29:08;;;;;;;1.53;1.43;;;26.90;66.10;;;;;;4973176;28;20872;-83
2023/07/30 12:31:37;;;;;;;1.70;1.60;;;27.00;65.70;;;;;;4968278;28;20517;-84
2023/07/30 12:34:06;;;;;;;1.67;1.53;;;27.20;65.30;;;;;;4968364;28;20467;-84
2023/07/30 12:36:34;;;;;;;1.40;1.30;;;27.40;64.90;;;;;;4973248;28;20513;-83
2023/07/30 12:39:03;;;;;;;1.73;1.33;;;27.50;64.60;;;;;;4973210;28;20475;-83
2023/07/30 12:41:31;;;;;;;1.83;1.10;;;27.50;64.40;;;;;;4973268;28;20456;-83
2023/07/30 12:43:59;;;;;;;2.83;1.67;;;27.60;64.30;;;;;;4974091;28;20466;-85
2023/07/30 12:46:29;;;;;;;1.87;1.40;;;27.60;64.10;;;;;;4972932;28;20464;-83
2023/07/30 12:49:02;;;;;;;1.43;1.33;;;27.60;64.10;;;;;;4972827;28;20439;-83
2023/07/30 12:51:31;;;;;;;1.80;1.40;;;27.60;64.00;;;;;;4972086;28;20482;-83
2023/07/30 12:53:59;;;;;;;1.23;1.13;;;27.60;64.20;;;;;;4973260;28;20543;-83
2023/07/30 12:56:27;;;;;;;1.60;1.50;;;27.50;64.30;;;;;;4973296;28;20491;-83
2023/07/30 12:58:55;;;;;;;1.77;1.67;;;27.50;64.30;;;;;;4973476;28;20456;-83
2023/07/30 13:01:24;;;;;;;1.97;1.80;;;27.40;64.50;;;;;;4966239;28;20471;-83
2023/07/30 13:03:54;;;;;;;2.50;1.37;;;27.40;64.60;;;;;;4972010;28;20466;-83